Time;durP1;ratioP1;P1;durP2;ratioP2;P2;SDS_P1;SDS_P2;PMS_P1;PMS_P2;Temp;Humidity;BMP_temperature;BMP_pressure;BME280_temperature;BME280_humidity;BME280_pressure;Samples;Min_cycle;Max_cycle;Signal;HPM_P1;HPM_P2
2022/10/12 00:02:12;;;;;;;;;;;18.60;89.40;;;;;;5134193;28;19963;-64
2022/10/12 00:04:37;;;;;;;;;;;18.40;89.30;;;;;;5134492;28;19923;-60
2022/10/12 00:07:03;;;;;;;;;;;18.50;89.30;;;;;;5116495;28;19981;-60
2022/10/12 00:09:29;;;;;;;;;;;18.40;89.20;;;;;;5133231;28;19923;-60
2022/10/12 00:11:54;;;;;;;;;;;18.40;89.20;;;;;;5132661;28;20026;-60
2022/10/12 00:14:20;;;;;;;;;;;18.40;89.30;;;;;;5137260;27;20002;-61
2022/10/12 00:16:45;;;;;;;;;;;18.40;89.30;;;;;;5138667;27;19923;-60
2022/10/12 00:19:11;;;;;;;;;;;18.50;89.20;;;;;;5136767;27;19977;-60
2022/10/12 00:21:37;;;;;;;;;;;18.40;89.10;;;;;;5138169;27;20369;-60
2022/10/12 00:24:02;;;;;;;;;;;18.30;89.10;;;;;;5120223;27;19928;-60
2022/10/12 00:26:28;;;;;;;;;;;18.30;89.10;;;;;;5126997;27;19924;-60
2022/10/12 00:28:55;;;;;;;;;;;18.50;89.20;;;;;;5117747;28;20407;-60
2022/10/12 00:31:21;;;;;;;;;;;18.60;89.20;;;;;;5133554;27;20005;-64
2022/10/12 00:33:47;;;;;;;;;;;18.40;89.20;;;;;;5153635;27;19966;-60
2022/10/12 00:36:19;;;;;;;;;;;18.20;89.00;;;;;;5159063;27;19938;-60
2022/10/12 00:38:47;;;;;;;;;;;18.20;89.00;;;;;;5159027;27;19923;-60
2022/10/12 00:41:12;;;;;;;;;;;18.40;89.00;;;;;;5157383;27;19926;-60
2022/10/12 00:43:40;;;;;;;;;;;18.50;89.10;;;;;;5158585;27;19923;-60
2022/10/12 00:46:24;;;;;;;;;;;18.50;89.10;;;;;;5140702;27;19919;-61
2022/10/12 00:48:54;;;;;;;;;;;18.30;89.00;;;;;;5158385;27;20276;-61
2022/10/12 00:51:20;;;;;;;;;;;18.50;89.10;;;;;;5138870;27;20015;-60
2022/10/12 00:53:47;;;;;;;;;;;18.20;88.90;;;;;;5158159;27;19967;-60
2022/10/12 00:56:15;;;;;;;;;;;18.40;89.00;;;;;;5139473;27;20376;-59
2022/10/12 00:58:41;;;;;;;;;;;18.40;89.00;;;;;;5139956;27;19949;-60
2022/10/12 01:01:06;;;;;;;;;;;18.20;88.90;;;;;;5157570;27;20384;-60
2022/10/12 01:03:32;;;;;;;;;;;18.10;88.70;;;;;;5138896;27;20395;-60
2022/10/12 01:05:58;;;;;;;;;;;18.40;88.90;;;;;;5140052;27;20288;-60
2022/10/12 01:08:23;;;;;;;;;;;18.20;88.80;;;;;;5158137;27;19998;-60
2022/10/12 01:10:49;;;;;;;;;;;18.20;88.80;;;;;;5139959;27;19923;-60
2022/10/12 01:13:15;;;;;;;;;;;18.30;88.90;;;;;;5155162;27;19967;-60
2022/10/12 01:16:04;;;;;;;;;;;18.20;88.80;;;;;;5158160;27;19967;-60
2022/10/12 01:18:35;;;;;;;;;;;18.30;88.80;;;;;;5074195;28;19924;-60
2022/10/12 01:21:18;;;;;;;;;;;18.50;89.00;;;;;;5074000;28;19924;-60
2022/10/12 01:23:47;;;;;;;;;;;18.10;88.70;;;;;;5075821;28;20003;-61
2022/10/12 01:26:31;;;;;;;;;;;18.20;88.80;;;;;;5072922;28;20030;-60
2022/10/12 01:29:22;;;;;;;;;;;18.10;88.70;;;;;;5074189;28;19924;-61
2022/10/12 01:32:17;;;;;;;;;;;18.00;88.80;;;;;;5043183;28;19949;-60
2022/10/12 01:34:44;;;;;;;;;;;18.20;88.80;;;;;;5032999;28;19936;-60
2022/10/12 01:37:12;;;;;;;;;;;18.10;88.80;;;;;;5019755;28;20317;-60
2022/10/12 01:39:38;;;;;;;;;;;18.20;88.90;;;;;;5037163;28;19931;-60
2022/10/12 01:42:06;;;;;;;;;;;18.30;88.90;;;;;;5016043;28;19926;-60
2022/10/12 01:44:32;;;;;;;;;;;18.40;89.00;;;;;;5025304;28;19926;-60
2022/10/12 01:46:57;;;;;;;;;;;18.20;88.90;;;;;;5048428;28;19925;-60
2022/10/12 01:49:24;;;;;;;;;;;18.00;88.80;;;;;;5034632;28;19929;-60
2022/10/12 01:52:09;;;;;;;;;;;18.40;89.00;;;;;;5032576;28;19932;-60
2022/10/12 01:54:53;;;;;;;;;;;18.20;88.80;;;;;;5043395;28;20021;-60
2022/10/12 01:57:24;;;;;;;;;;;18.20;88.90;;;;;;5101840;28;20026;-60
2022/10/12 01:59:55;;;;;;;;;;;18.20;88.90;;;;;;5112569;28;19923;-60
2022/10/12 02:02:26;;;;;;;;;;;18.10;88.80;;;;;;5096726;28;20392;-61
2022/10/12 02:04:57;;;;;;;;;;;18.00;88.60;;;;;;5112020;28;20281;-61
2022/10/12 02:07:45;;;;;;;;;;;18.20;88.80;;;;;;5112486;28;19923;-60
2022/10/12 02:10:13;;;;;;;;;;;18.00;87.80;;;;;;5111074;27;20297;-61
2022/10/12 02:12:39;;;;;;;;;;;18.00;88.60;;;;;;5136106;27;19983;-60
2022/10/12 02:15:04;;;;;;;;;;;17.90;88.50;;;;;;5137816;27;19923;-60
2022/10/12 02:17:30;;;;;;;;;;;18.10;88.60;;;;;;5119454;27;19978;-60
2022/10/12 02:19:56;;;;;;;;;;;18.20;88.70;;;;;;5156679;27;19923;-60
2022/10/12 02:22:22;;;;;;;;;;;18.10;88.60;;;;;;5157029;27;19923;-60
2022/10/12 02:24:48;;;;;;;;;;;18.10;88.60;;;;;;5137130;27;19923;-60
2022/10/12 02:27:14;;;;;;;;;;;18.10;88.20;;;;;;5154117;27;19930;-61
2022/10/12 02:29:40;;;;;;;;;;;18.20;88.70;;;;;;5156472;27;19925;-60
2022/10/12 02:32:07;;;;;;;;;;;18.20;88.70;;;;;;5156588;27;20307;-61
2022/10/12 02:34:34;;;;;;;;;;;18.10;88.50;;;;;;5156427;27;19970;-60
2022/10/12 02:37:23;;;;;;;;;;;17.90;88.40;;;;;;5135330;27;19924;-64
2022/10/12 02:39:50;;;;;;;;;;;18.10;88.50;;;;;;5143404;27;19930;-64
2022/10/12 02:42:21;;;;;;;;;;;18.00;88.50;;;;;;5156457;27;19923;-60
2022/10/12 02:44:47;;;;;;;;;;;18.10;88.60;;;;;;5156579;27;20014;-60
2022/10/12 02:47:12;;;;;;;;;;;18.10;88.50;;;;;;5154637;27;19981;-60
2022/10/12 02:49:38;;;;;;;;;;;18.10;88.60;;;;;;5135874;27;20357;-60
2022/10/12 02:52:03;;;;;;;;;;;17.90;88.40;;;;;;5137908;27;19923;-60
2022/10/12 02:54:29;;;;;;;;;;;18.00;88.50;;;;;;5156105;27;20370;-60
2022/10/12 02:56:55;;;;;;;;;;;18.00;88.50;;;;;;5138733;27;19924;-60
2022/10/12 02:59:20;;;;;;;;;;;18.10;88.50;;;;;;5154396;27;19923;-60
2022/10/12 03:01:46;;;;;;;;;;;17.80;88.40;;;;;;5155865;27;19982;-60
2022/10/12 03:04:12;;;;;;;;;;;17.90;88.40;;;;;;5156229;27;19967;-61
2022/10/12 03:06:37;;;;;;;;;;;17.90;88.40;;;;;;5156156;27;20393;-60
2022/10/12 03:09:04;;;;;;;;;;;18.00;88.50;;;;;;5153856;27;20464;-61
2022/10/12 03:11:30;;;;;;;;;;;17.80;88.40;;;;;;5136239;27;20398;-61
2022/10/12 03:13:55;;;;;;;;;;;17.80;88.50;;;;;;5155801;27;19930;-60
2022/10/12 03:16:21;;;;;;;;;;;17.90;88.50;;;;;;5155605;27;19919;-60
2022/10/12 03:18:47;;;;;;;;;;;18.00;88.50;;;;;;5155542;27;19923;-60
2022/10/12 03:21:12;;;;;;;;;;;18.10;88.50;;;;;;5154034;27;20380;-60
2022/10/12 03:23:38;;;;;;;;;;;17.80;88.40;;;;;;5155562;27;19923;-60
2022/10/12 03:26:04;;;;;;;;;;;18.00;88.40;;;;;;5155957;27;19923;-60
2022/10/12 03:28:30;;;;;;;;;;;18.20;88.50;;;;;;5155788;27;20313;-60
2022/10/12 03:30:55;;;;;;;;;;;18.00;88.40;;;;;;5154530;27;20283;-60
2022/10/12 03:33:21;;;;;;;;;;;17.70;88.20;;;;;;5132730;27;20399;-60
2022/10/12 03:35:47;;;;;;;;;;;17.90;88.30;;;;;;5135373;28;19927;-60
2022/10/12 03:38:12;;;;;;;;;;;18.10;88.40;;;;;;5133890;28;20318;-60
2022/10/12 03:40:38;;;;;;;;;;;17.60;88.10;;;;;;5134319;27;19974;-64
2022/10/12 03:43:04;;;;;;;;;;;;;;;;;;5132224;27;19944;-65
2022/10/12 03:45:30;;;;;;;;;;;17.90;88.30;;;;;;5134025;28;19929;-60
2022/10/12 03:47:55;;;;;;;;;;;18.00;88.30;;;;;;5137042;27;20014;-60
2022/10/12 03:50:21;;;;;;;;;;;18.00;88.30;;;;;;5137003;27;20363;-60
2022/10/12 03:52:47;;;;;;;;;;;18.00;88.30;;;;;;5136297;27;19924;-60
2022/10/12 03:55:12;;;;;;;;;;;18.10;88.50;;;;;;5139201;27;19927;-61
2022/10/12 03:57:38;;;;;;;;;;;17.70;88.20;;;;;;5139047;27;19988;-60
2022/10/12 04:00:04;;;;;;;;;;;18.00;88.40;;;;;;5138760;27;20285;-63
2022/10/12 04:02:29;;;;;;;;;;;18.00;88.40;;;;;;5137740;27;19960;-60
2022/10/12 04:04:55;;;;;;;;;;;18.00;88.30;;;;;;5138140;27;20399;-60
2022/10/12 04:07:21;;;;;;;;;;;18.00;88.40;;;;;;5136277;27;19931;-60
2022/10/12 07:14:17;;;;;;;;;;;18.20;86.40;;;;;;4854746;29;19920;-61
2022/10/12 07:16:42;;;;;;;;;;;18.20;86.30;;;;;;4834609;29;19916;-61
2022/10/12 07:19:08;;;;;;;;;;;18.40;86.30;;;;;;4849378;29;20505;-61
2022/10/12 07:21:58;;;;;;;;;;;18.50;86.20;;;;;;4829139;29;19916;-60
2022/10/12 07:24:23;;;;;;;;;;;;;;;;;;4839142;29;20486;-68
2022/10/12 07:26:49;;;;;;;;;;;18.80;86.00;;;;;;4841778;29;19916;-70
2022/10/12 07:29:15;;;;;;;;;;;18.70;85.70;;;;;;4841095;29;19927;-61
2022/10/12 07:31:41;;;;;;;;;;;18.80;85.60;;;;;;4839200;29;19917;-60
2022/10/12 07:34:07;;;;;;;;;;;18.90;85.50;;;;;;4829312;29;20004;-60
2022/10/12 07:36:32;;;;;;;;;;;19.20;85.60;;;;;;4823088;29;19921;-62
2022/10/12 07:39:00;;;;;;;;;;;19.00;85.30;;;;;;4838494;29;19967;-60
2022/10/12 07:41:26;;;;;;;;;;;19.30;85.40;;;;;;4895395;29;20050;-60
2022/10/12 07:43:55;;;;;;;;;;;19.40;85.30;;;;;;4967034;28;20395;-67
2022/10/12 07:46:21;;;;;;;;;;;19.50;85.20;;;;;;4995803;28;19926;-68
2022/10/12 07:48:46;;;;;;;;;;;19.60;85.10;;;;;;5126608;27;19931;-67
2022/10/12 07:51:12;;;;;;;;;;;19.30;84.80;;;;;;5145032;27;19918;-65
2022/10/12 07:53:38;;;;;;;;;;;19.60;84.70;;;;;;5173018;27;19923;-61
2022/10/12 07:56:04;;;;;;;;;;;19.70;83.90;;;;;;5172013;27;20022;-60
2022/10/12 07:58:30;;;;;;;;;;;19.80;82.30;;;;;;5172465;27;19922;-61
2022/10/12 08:00:56;;;;;;;;;;;19.60;83.30;;;;;;5169646;27;20342;-65
2022/10/12 08:03:21;;;;;;;;;;;19.80;83.20;;;;;;5172507;27;20276;-64
2022/10/12 08:05:47;;;;;;;;;;;;;;;;;;5171718;27;19923;-65
2022/10/12 08:08:13;;;;;;;;;;;19.80;83.10;;;;;;5142723;27;20407;-59
2022/10/12 08:10:39;;;;;;;;;;;19.60;83.00;;;;;;5159746;27;19930;-60
2022/10/12 08:13:04;;;;;;;;;;;19.60;83.20;;;;;;5140064;27;19930;-61
2022/10/12 08:15:30;;;;;;;;;;;20.00;83.10;;;;;;5140171;27;20025;-61
2022/10/12 08:17:56;;;;;;;;;;;19.80;82.90;;;;;;5159055;27;19923;-61
2022/10/12 08:20:21;;;;;;;;;;;20.90;83.40;;;;;;5136159;27;20376;-61
2022/10/12 08:22:47;;;;;;;;;;;20.00;83.20;;;;;;5158148;27;20344;-70
2022/10/12 08:25:12;;;;;;;;;;;19.70;82.80;;;;;;5139880;27;19927;-62
2022/10/12 08:27:38;;;;;;;;;;;19.90;82.90;;;;;;5160459;27;20002;-62
2022/10/12 08:30:04;;;;;;;;;;;20.00;82.90;;;;;;5159163;27;20399;-64
2022/10/12 08:32:30;;;;;;;;;;;20.00;82.90;;;;;;5139773;27;19927;-62
2022/10/12 08:34:56;;;;;;;;;;;19.90;82.90;;;;;;5158195;27;19923;-61
2022/10/12 08:37:22;;;;;;;;;;;19.90;83.00;;;;;;5139993;27;19931;-61
2022/10/12 08:39:47;;;;;;;;;;;19.70;82.80;;;;;;5157910;27;20407;-61
2022/10/12 08:42:31;;;;;;;;;;;19.70;82.90;;;;;;5173815;27;19930;-61
2022/10/12 08:45:14;;;;;;;;;;;19.90;82.20;;;;;;5159661;27;20371;-60
2022/10/12 08:47:44;;;;;;;;;;;19.60;83.00;;;;;;5142568;27;19993;-61
2022/10/12 08:50:13;;;;;;;;;;;19.80;83.20;;;;;;5158830;27;20010;-61
2022/10/12 08:52:40;;;;;;;;;;;19.90;83.20;;;;;;5159164;27;19923;-61
2022/10/12 08:55:15;;;;;;;;;;;19.80;83.80;;;;;;5141880;27;19966;-61
2022/10/12 08:57:40;;;;;;;;;;;19.60;83.30;;;;;;5142239;27;19938;-61
2022/10/12 09:00:11;;;;;;;;;;;19.70;83.30;;;;;;5170112;27;20033;-62
2022/10/12 09:02:43;;;;;;;;;;;19.50;83.20;;;;;;5158424;27;20017;-65
2022/10/12 09:05:10;;;;;;;;;;;19.80;83.40;;;;;;5157299;27;19926;-67
2022/10/12 09:07:35;;;;;;;;;;;19.60;83.30;;;;;;5145180;27;20325;-65
2022/10/12 09:10:16;;;;;;;;;;;19.70;83.40;;;;;;5172732;27;19962;-65
2022/10/12 09:13:02;;;;;;;;;;;19.80;83.30;;;;;;5157476;27;19975;-63
2022/10/12 09:15:32;;;;;;;;;;;19.50;83.10;;;;;;5140099;27;19922;-61
2022/10/12 09:17:58;;;;;;;;;;;19.80;83.40;;;;;;5153736;27;19967;-63
2022/10/12 09:20:28;;;;;;;;;;;19.80;83.40;;;;;;5138693;27;19966;-61
2022/10/12 09:22:54;;;;;;;;;;;19.80;83.30;;;;;;5156146;27;19927;-61
2022/10/12 09:25:24;;;;;;;;;;;19.60;83.10;;;;;;5175482;27;19963;-61
2022/10/12 09:27:49;;;;;;;;;;;19.70;83.20;;;;;;5173506;27;20402;-61
2022/10/12 09:30:15;;;;;;;;;;;19.70;83.20;;;;;;5123465;27;19927;-61
2022/10/12 09:32:50;;;;;;;;;;;19.80;83.40;;;;;;5172414;27;19926;-62
2022/10/12 09:35:16;;;;;;;;;;;19.90;83.50;;;;;;5177513;27;19922;-61
2022/10/12 09:37:41;;;;;;;;;;;19.80;83.50;;;;;;5176508;27;19971;-62
2022/10/12 09:40:13;;;;;;;;;;;19.80;83.50;;;;;;5175376;27;19966;-61
2022/10/12 09:42:38;;;;;;;;;;;19.70;83.50;;;;;;5158125;27;20005;-60
2022/10/12 09:45:11;;;;;;;;;;;19.70;83.50;;;;;;5158091;27;19966;-61
2022/10/12 09:47:37;;;;;;;;;;;19.70;83.40;;;;;;5145815;27;20287;-62
2022/10/12 09:50:03;;;;;;;;;;;19.80;83.40;;;;;;5137844;27;19923;-62
2022/10/12 09:52:30;;;;;;;;;;;19.70;82.90;;;;;;5161681;27;20387;-60
2022/10/12 09:54:57;;;;;;;;;;;19.50;82.90;;;;;;5158647;27;20338;-60
2022/10/12 09:57:24;;;;;;;;;;;19.50;82.90;;;;;;5176220;27;19922;-62
2022/10/12 09:59:50;;;;;;;;;;;19.60;83.40;;;;;;5157189;27;19923;-61
2022/10/12 10:02:20;;;;;;;;;;;19.50;82.80;;;;;;5172116;27;19930;-61
2022/10/12 10:04:46;;;;;;;;;;;;;;;;;;5139020;27;20407;-66
2022/10/12 10:07:29;;;;;;;;;;;19.50;81.50;;;;;;5156991;27;19923;-61
2022/10/12 10:10:03;;;;;;;;;;;19.60;83.00;;;;;;5176445;27;19930;-61
2022/10/12 10:12:29;;;;;;;;;;;19.30;82.90;;;;;;5174448;27;20557;-60
2022/10/12 10:14:55;;;;;;;;;;;19.30;82.80;;;;;;5164713;27;19931;-61
2022/10/12 10:17:25;;;;;;;;;;;19.40;82.80;;;;;;5156123;27;20287;-61
2022/10/12 10:19:51;;;;;;;;;;;19.60;82.90;;;;;;5127419;27;19922;-63
2022/10/12 10:22:17;;;;;;;;;;;19.50;82.80;;;;;;5146837;27;19923;-72
2022/10/12 10:24:42;;;;;;;;;;;19.60;82.80;;;;;;5140159;27;19966;-60
2022/10/12 10:27:10;;;;;;;;;;;19.50;82.70;;;;;;5137380;27;19923;-61
2022/10/12 10:29:39;;;;;;;;;;;19.40;82.70;;;;;;5152417;27;20014;-61
2022/10/12 10:32:11;;;;;;;;;;;19.50;82.70;;;;;;5156171;27;19938;-61
2022/10/12 10:35:06;;;;;;;;;;;19.30;82.70;;;;;;5156683;27;20415;-64
2022/10/12 10:37:51;;;;;;;;;;;19.40;82.90;;;;;;5154668;27;19917;-61
2022/10/12 10:40:35;;;;;;;;;;;19.80;83.30;;;;;;5176442;27;20291;-60
2022/10/12 10:43:26;;;;;;;;;;;19.60;83.50;;;;;;5160614;27;19994;-60
2022/10/12 10:46:10;;;;;;;;;;;19.70;83.50;;;;;;5171950;27;19917;-59
2022/10/12 10:48:57;;;;;;;;;;;19.90;83.80;;;;;;5150312;27;20446;-60
2022/10/12 10:51:38;;;;;;;;;;;19.70;84.10;;;;;;5155676;27;19982;-59
2022/10/12 10:54:24;;;;;;;;;;;19.90;83.90;;;;;;5155849;27;19930;-61
2022/10/12 10:56:58;;;;;;;;;;;19.80;84.00;;;;;;5150872;27;19922;-65
2022/10/12 10:59:42;;;;;;;;;;;19.90;83.10;;;;;;5161425;27;19923;-62
2022/10/12 11:02:16;;;;;;;;;;;20.00;83.20;;;;;;5173855;27;20006;-62
2022/10/12 11:04:43;;;;;;;;;;;20.10;83.10;;;;;;5158382;27;19922;-62
2022/10/12 11:07:29;;;;;;;;;;;20.00;83.90;;;;;;5156066;27;19927;-60
2022/10/12 11:09:56;;;;;;;;;;;20.40;84.10;;;;;;5158149;27;19938;-62
2022/10/12 11:12:32;;;;;;;;;;;20.20;83.80;;;;;;5142937;27;20357;-62
2022/10/12 11:15:05;;;;;;;;;;;21.70;83.70;;;;;;5137016;27;19927;-62
2022/10/12 11:17:36;;;;;;;;;;;20.50;83.70;;;;;;5155401;27;20023;-62
2022/10/12 11:20:02;;;;;;;;;;;20.80;82.80;;;;;;5162680;27;19923;-61
2022/10/12 11:22:29;;;;;;;;;;;20.70;83.60;;;;;;5168953;27;19931;-60
2022/10/12 11:25:01;;;;;;;;;;;20.90;84.10;;;;;;5176258;27;19950;-60
2022/10/12 11:27:30;;;;;;;;;;;20.80;82.60;;;;;;5171414;27;19931;-59
2022/10/12 11:29:57;;;;;;;;;;;21.00;83.80;;;;;;5136873;27;20384;-60
2022/10/12 11:32:33;;;;;;;;;;;20.90;83.60;;;;;;5155293;27;19922;-60
2022/10/12 11:35:03;;;;;;;;;;;21.30;82.40;;;;;;5156881;27;20298;-62
2022/10/12 11:37:39;;;;;;;;;;;21.20;82.10;;;;;;5175681;27;19923;-61
2022/10/12 11:40:08;;;;;;;;;;;21.20;83.40;;;;;;5166562;27;19929;-60
2022/10/12 11:42:37;;;;;;;;;;;21.40;81.90;;;;;;5157474;27;19945;-60
2022/10/12 11:45:04;;;;;;;;;;;21.40;83.10;;;;;;5150740;27;19938;-60
2022/10/12 11:47:31;;;;;;;;;;;21.50;82.70;;;;;;5179533;27;19974;-60
2022/10/12 11:49:58;;;;;;;;;;;21.70;82.90;;;;;;5169260;27;19924;-60
2022/10/12 11:52:24;;;;;;;;;;;21.60;82.70;;;;;;5140287;27;20063;-60
2022/10/12 11:54:52;;;;;;;;;;;21.70;81.60;;;;;;5141612;27;19970;-63
2022/10/12 11:57:20;;;;;;;;;;;21.60;79.90;;;;;;5177953;27;19927;-60
2022/10/12 11:59:52;;;;;;;;;;;21.70;80.60;;;;;;5157247;27;19922;-61
2022/10/12 12:02:19;;;;;;;;;;;21.90;79.40;;;;;;5149871;27;20382;-61
2022/10/12 12:04:45;;;;;;;;;;;21.90;80.50;;;;;;5158963;27;20153;-68
2022/10/12 12:07:30;;;;;;;;;;;21.80;80.40;;;;;;5164125;27;19926;-69
2022/10/12 12:09:55;;;;;;;;;;;21.70;78.80;;;;;;5166867;27;20291;-63
2022/10/12 12:12:25;;;;;;;;;;;22.00;79.60;;;;;;5176983;27;19923;-67
2022/10/12 12:14:54;;;;;;;;;;;22.80;79.20;;;;;;5174662;27;19930;-61
2022/10/12 12:17:19;;;;;;;;;;;23.80;76.70;;;;;;5179040;27;20447;-61
2022/10/12 12:19:45;;;;;;;;;;;24.60;75.90;;;;;;5177384;27;20030;-61
2022/10/12 12:22:11;;;;;;;;;;;25.10;75.30;;;;;;5179291;27;20289;-60
2022/10/12 12:24:37;;;;;;;;;;;26.10;73.80;;;;;;5147220;27;19930;-60
2022/10/12 12:27:02;;;;;;;;;;;26.40;73.20;;;;;;5122857;27;19966;-60
2022/10/12 12:29:28;;;;;;;;;;;26.80;71.90;;;;;;5158277;27;20014;-60
2022/10/12 12:32:00;;;;;;;;;;;26.70;71.30;;;;;;5158892;27;19945;-68
2022/10/12 12:34:26;;;;;;;;;;;27.20;70.80;;;;;;5143970;27;19923;-64
2022/10/12 12:36:52;;;;;;;;;;;27.00;70.30;;;;;;5167681;27;20396;-71
2022/10/12 12:39:29;;;;;;;;;;;27.10;70.60;;;;;;5159979;27;20376;-72
2022/10/12 12:42:04;;;;;;;;;;;27.50;70.30;;;;;;5176794;27;19987;-60
2022/10/12 12:44:32;;;;;;;;;;;27.90;68.40;;;;;;5170563;27;19926;-61
2022/10/12 12:47:01;;;;;;;;;;;27.80;67.70;;;;;;5168427;27;19929;-66
2022/10/12 12:49:27;;;;;;;;;;;27.40;67.50;;;;;;5175026;27;20299;-61
2022/10/12 12:51:53;;;;;;;;;;;26.90;69.20;;;;;;5170753;27;20013;-72
2022/10/12 12:54:20;;;;;;;;;;;25.80;69.50;;;;;;5160085;27;19927;-72
2022/10/12 12:56:49;;;;;;;;;;;25.60;70.60;;;;;;5167297;27;20009;-71
2022/10/12 12:59:32;;;;;;;;;;;25.10;69.80;;;;;;5175432;27;19967;-72
2022/10/12 13:02:03;;;;;;;;;;;24.80;70.40;;;;;;5157729;27;20288;-71
2022/10/12 13:04:29;;;;;;;;;;;24.60;71.30;;;;;;5157574;27;19978;-67
2022/10/12 13:07:13;;;;;;;;;;;24.40;72.80;;;;;;5157609;27;19934;-65
2022/10/12 13:09:44;;;;;;;;;;;23.70;71.70;;;;;;5172320;27;20415;-64
2022/10/12 13:12:13;;;;;;;;;;;23.70;72.30;;;;;;5159753;27;20295;-61
2022/10/12 13:14:58;;;;;;;;;;;23.30;74.20;;;;;;5141281;27;19923;-62
2022/10/12 13:17:32;;;;;;;;;;;23.00;73.50;;;;;;5166459;27;19975;-71
2022/10/12 13:19:58;;;;;;;;;;;22.50;74.00;;;;;;5160590;27;20021;-72
2022/10/12 13:22:28;;;;;;;;;;;22.70;76.00;;;;;;5138865;27;19966;-71
2022/10/12 13:24:57;;;;;;;;;;;22.20;75.00;;;;;;5121368;27;20338;-60
2022/10/12 13:27:24;;;;;;;;;;;21.80;76.70;;;;;;5132091;27;19930;-62
2022/10/12 13:29:50;;;;;;;;;;;22.10;77.30;;;;;;5149740;27;19927;-64
2022/10/12 13:32:21;;;;;;;;;;;21.30;77.10;;;;;;5156696;27;19998;-64
2022/10/12 13:34:47;;;;;;;;;;;21.50;76.40;;;;;;5138576;27;19923;-72
2022/10/12 13:37:13;;;;;;;;;;;21.30;77.90;;;;;;5121406;27;19964;-65
2022/10/12 13:39:39;;;;;;;;;;;21.00;78.20;;;;;;5141523;27;20082;-65
2022/10/12 13:42:05;;;;;;;;;;;21.00;78.70;;;;;;5156886;27;20299;-61
2022/10/12 13:44:34;;;;;;;;;;;21.00;78.50;;;;;;5168036;27;19923;-60
2022/10/12 13:47:00;;;;;;;;;;;20.70;79.10;;;;;;5159515;27;20276;-61
2022/10/12 13:49:30;;;;;;;;;;;20.70;79.50;;;;;;5175227;27;19927;-64
2022/10/12 13:51:56;;;;;;;;;;;20.70;78.30;;;;;;5164657;27;19929;-64
2022/10/12 13:54:22;;;;;;;;;;;20.70;79.80;;;;;;5177179;27;19923;-67
2022/10/12 13:56:49;;;;;;;;;;;20.50;79.50;;;;;;5162588;27;19971;-64
2022/10/12 13:59:19;;;;;;;;;;;20.70;80.30;;;;;;5137662;27;20019;-64
2022/10/12 14:01:52;;;;;;;;;;;20.60;79.00;;;;;;5144556;27;19930;-64
2022/10/12 14:04:18;;;;;;;;;;;20.50;79.10;;;;;;5175013;27;19923;-65
2022/10/12 14:06:48;;;;;;;;;;;20.30;80.20;;;;;;5155310;27;20440;-64
2022/10/12 14:09:14;;;;;;;;;;;20.60;80.90;;;;;;5141816;27;19976;-64
2022/10/12 14:11:40;;;;;;;;;;;20.60;81.00;;;;;;5138122;27;19923;-62
2022/10/12 14:14:10;;;;;;;;;;;20.30;80.50;;;;;;5157947;27;19923;-63
2022/10/12 14:16:36;;;;;;;;;;;20.20;81.20;;;;;;5158593;27;19974;-61
2022/10/12 14:19:17;;;;;;;;;;;20.10;81.20;;;;;;5160747;27;19927;-62
2022/10/12 14:21:44;;;;;;;;;;;20.10;80.10;;;;;;5163989;27;20291;-61
2022/10/12 14:24:09;;;;;;;;;;;19.90;81.70;;;;;;5137993;27;20030;-61
2022/10/12 14:26:39;;;;;;;;;;;20.00;81.50;;;;;;5156456;27;19958;-60
2022/10/12 14:29:24;;;;;;;;;;;20.20;80.80;;;;;;5137572;27;19927;-60
2022/10/12 14:31:51;;;;;;;;;;;20.10;81.90;;;;;;5156386;27;19965;-62
2022/10/12 14:34:26;;;;;;;;;;;20.10;81.90;;;;;;5160368;27;20065;-61
2022/10/12 14:37:22;;;;;;;;;;;19.90;81.80;;;;;;5161531;27;19945;-61
2022/10/12 14:39:48;;;;;;;;;;;20.00;80.60;;;;;;5110583;27;19923;-60
2022/10/12 14:42:20;;;;;;;;;;;20.00;80.70;;;;;;5155589;27;19967;-60
2022/10/12 14:44:46;;;;;;;;;;;20.40;79.60;;;;;;5168793;27;19929;-59
2022/10/12 14:47:21;;;;;;;;;;;19.60;79.80;;;;;;5163911;27;19923;-61
2022/10/12 14:49:47;;;;;;;;;;;19.90;80.30;;;;;;5137221;27;20268;-60
2022/10/12 14:52:22;;;;;;;;;;;19.50;79.70;;;;;;5164463;27;19968;-61
2022/10/12 14:54:49;;;;;;;;;;;19.40;79.60;;;;;;5158304;27;19923;-60
2022/10/12 14:57:15;;;;;;;;;;;19.30;79.70;;;;;;5155489;27;19927;-60
2022/10/12 14:59:40;;;;;;;;;;;19.50;80.00;;;;;;5155575;27;20377;-60
2022/10/12 15:02:14;;;;;;;;;;;19.20;79.80;;;;;;5167866;27;19923;-61
2022/10/12 15:04:39;;;;;;;;;;;19.20;80.20;;;;;;5147822;27;19923;-60
2022/10/12 15:07:11;;;;;;;;;;;19.10;80.20;;;;;;5155130;27;19935;-60
2022/10/12 15:09:36;;;;;;;;;;;19.00;80.80;;;;;;5146017;27;20399;-62
2022/10/12 15:12:02;;;;;;;;;;;19.10;80.80;;;;;;5154840;27;19923;-63
2022/10/12 15:14:28;;;;;;;;;;;19.00;80.50;;;;;;5157882;27;19923;-63
2022/10/12 15:16:54;;;;;;;;;;;19.10;80.50;;;;;;5155258;27;19929;-61
2022/10/12 15:19:20;;;;;;;;;;;19.10;80.60;;;;;;5165277;27;19929;-61
2022/10/12 15:21:46;;;;;;;;;;;19.20;80.90;;;;;;5178968;27;19923;-63
2022/10/12 15:24:15;;;;;;;;;;;19.20;80.80;;;;;;5160420;27;19964;-62
2022/10/12 15:26:40;;;;;;;;;;;19.10;80.80;;;;;;5150223;27;19931;-62
2022/10/12 15:29:06;;;;;;;;;;;19.40;80.80;;;;;;5159104;27;19919;-62
2022/10/12 15:31:32;;;;;;;;;;;19.00;80.70;;;;;;5159079;27;19923;-61
2022/10/12 15:33:57;;;;;;;;;;;18.90;80.80;;;;;;5159352;27;19923;-64
2022/10/12 15:36:23;;;;;;;;;;;18.80;80.90;;;;;;5159517;27;19919;-62
2022/10/12 15:38:48;;;;;;;;;;;18.90;81.00;;;;;;5158683;27;20411;-61
2022/10/12 15:41:17;;;;;;;;;;;18.90;81.40;;;;;;5159245;27;19927;-61
2022/10/12 15:43:43;;;;;;;;;;;19.10;81.50;;;;;;5147150;27;19923;-67
2022/10/12 15:46:09;;;;;;;;;;;18.90;81.40;;;;;;5171266;27;20281;-65
2022/10/12 15:48:35;;;;;;;;;;;18.70;81.40;;;;;;5159397;27;19927;-61
2022/10/12 15:51:01;;;;;;;;;;;19.20;81.70;;;;;;5140082;27;19927;-61
2022/10/12 15:53:27;;;;;;;;;;;19.30;81.70;;;;;;5140301;27;20052;-61
2022/10/12 15:55:52;;;;;;;;;;;19.20;81.80;;;;;;5158897;27;19923;-61
2022/10/12 15:58:18;;;;;;;;;;;19.20;81.80;;;;;;5159126;27;20332;-72
2022/10/12 16:00:44;;;;;;;;;;;19.00;81.80;;;;;;5159055;27;20496;-70
2022/10/12 16:03:13;;;;;;;;;;;19.10;81.90;;;;;;5139923;27;19923;-63
2022/10/12 16:05:39;;;;;;;;;;;19.30;82.00;;;;;;5139989;27;19971;-62
2022/10/12 16:08:05;;;;;;;;;;;19.00;81.80;;;;;;5159282;27;19931;-60
2022/10/12 16:10:31;;;;;;;;;;;19.30;82.10;;;;;;5167148;27;19939;-64
2022/10/12 16:12:57;;;;;;;;;;;19.30;82.10;;;;;;5176630;27;19946;-62
2022/10/12 16:15:24;;;;;;;;;;;19.30;82.20;;;;;;5164454;27;19922;-62
2022/10/12 16:17:49;;;;;;;;;;;19.20;82.30;;;;;;5169265;27;19927;-61
2022/10/12 16:20:15;;;;;;;;;;;19.20;82.40;;;;;;5158987;27;19923;-62
2022/10/12 16:22:41;;;;;;;;;;;19.00;82.40;;;;;;5161020;27;20013;-62
2022/10/12 16:25:07;;;;;;;;;;;19.50;82.90;;;;;;5158481;27;20279;-61
2022/10/12 16:27:33;;;;;;;;;;;19.10;82.90;;;;;;5157969;27;20299;-62
2022/10/12 16:29:59;;;;;;;;;;;19.30;83.40;;;;;;5178337;27;19963;-62
2022/10/12 16:32:24;;;;;;;;;;;19.20;83.60;;;;;;5178677;27;20340;-61
2022/10/12 16:34:50;;;;;;;;;;;;;;;;;;5177965;27;19922;-61
2022/10/12 16:37:16;;;;;;;;;;;19.30;84.10;;;;;;5179074;27;19918;-62
2022/10/12 16:39:42;;;;;;;;;;;19.40;84.40;;;;;;5168990;27;19926;-61
2022/10/12 16:42:07;;;;;;;;;;;19.30;84.30;;;;;;5160008;27;19937;-61
2022/10/12 16:44:33;;;;;;;;;;;19.20;84.50;;;;;;5158003;27;20361;-61
2022/10/12 16:47:00;;;;;;;;;;;19.40;84.70;;;;;;5157750;27;20060;-60
2022/10/12 16:49:26;;;;;;;;;;;19.30;84.70;;;;;;5157900;27;19923;-64
2022/10/12 16:51:52;;;;;;;;;;;19.50;85.00;;;;;;5159147;27;19930;-61
2022/10/12 16:54:18;;;;;;;;;;;19.30;84.90;;;;;;5153939;27;19923;-62
2022/10/12 16:56:44;;;;;;;;;;;19.40;84.90;;;;;;5178172;27;20017;-62
2022/10/12 16:59:09;;;;;;;;;;;19.20;84.80;;;;;;5178286;27;20010;-62
2022/10/12 17:01:35;;;;;;;;;;;19.30;84.90;;;;;;5178600;27;19983;-61
2022/10/12 17:04:01;;;;;;;;;;;19.20;84.90;;;;;;5166143;27;20010;-61
2022/10/12 17:06:27;;;;;;;;;;;19.20;84.90;;;;;;5157644;27;19923;-62
2022/10/12 17:08:53;;;;;;;;;;;19.20;84.90;;;;;;5168007;27;19945;-61
2022/10/12 17:11:20;;;;;;;;;;;19.00;84.80;;;;;;5177947;27;20001;-64
2022/10/12 17:13:48;;;;;;;;;;;19.30;85.00;;;;;;5173156;27;19923;-63
2022/10/12 17:19:07;;;;;;;;;;;19.20;84.80;;;;;;5113359;28;19924;-61
2022/10/12 17:21:32;;;;;;;;;;;19.30;85.00;;;;;;5113869;28;19924;-61
2022/10/12 17:23:58;;;;;;;;;;;19.10;84.90;;;;;;5095648;28;19920;-63
2022/10/12 17:26:24;;;;;;;;;;;19.20;84.60;;;;;;5095942;28;19928;-60
2022/10/12 17:28:50;;;;;;;;;;;19.10;84.90;;;;;;5092977;28;19924;-60
2022/10/12 17:31:15;;;;;;;;;;;19.20;84.70;;;;;;5093290;28;20371;-60
2022/10/12 17:33:41;;;;;;;;;;;19.30;85.00;;;;;;5093160;28;19953;-61
2022/10/12 17:36:10;;;;;;;;;;;19.10;84.80;;;;;;5103528;27;19926;-72